Vremea mâine în Bălcești - Romania

Vrei sa afli care e starea vremii acum in Mehedinti - Romania? Dorim sa iti furnizam starea vremii pentru Mehedinti - Romania. Starea vremii Mehedinti - Romania pentru astazi.

Vremea mâine în Bălcești

Temperatura minimă:
13.3 °C

Temperatura maximă:
14.5 °C

Mâine va fi: Ploi moderate
Precipitații: 91 %
Umiditate: 95%
Viteza maximă vânt mâine:
10.1 km/h

Evoluția vremii in Bălcești pe ore mâine

Ora: 09:00
Temperatura: °C
Sansa de precipitatii: %
Ora Descriere Temp Se simte Precipitatii Umiditate Vant
00:00Ploi usoare14.7°14.4°100%94%SW 8.6 KM/H
01:00Ploi moderate sau averse14.4°14.3°100%95%S 7.6 KM/H
02:00Ploi usoare14.1°14.4°100%97%WNW 5 KM/H
03:00Ploi usoare14.1°14.2°100%97%NW 5.8 KM/H
04:00Burniță ușoară14.3°14.1°100%96%N 7.9 KM/H
05:00Burniță ușoară14.2°13.7°100%96%N 9.7 KM/H
06:00Burniță ușoară14.2°13.6°100%95%NNE 10.1 KM/H
07:00Ceata14.1°13.9°100%95%NNE 7.9 KM/H
08:00Burniță ușoară14.3°14.4°100%94%E 5.8 KM/H
09:00Burniță ușoară14.3°14.7°100%95%E 5 KM/H
10:00Ploaie ușoară14.5°14.7°100%96%E 5.4 KM/H
11:00Ploi moderate14.3°14.1°100%97%ENE 7.6 KM/H
12:00Ploaie ușoară14.1°13.9°100%96%E 7.9 KM/H
13:00Ploi usoare14.2°14.4°100%95%E 5.8 KM/H
14:00Ploi usoare14.4°14.8°100%94%NE 4.7 KM/H
15:00Ploi usoare14.4°14.5°100%94%NNE 5.8 KM/H
16:00Ceata14.3°14.2°100%94%NNE 7.2 KM/H
17:00Patchy rain nearby14.4°14.5°100%94%NNE 6.5 KM/H
18:00Ploi usoare14.4°14.5°100%94%N 5.8 KM/H
19:00Ploi usoare14°14°100%95%NNW 6.1 KM/H
20:00Ploi usoare13.8°13.9°100%95%NNW 5.4 KM/H
21:00Ceata13.5°13.7°68%95%NNE 5 KM/H
22:00Ceata13.4°13.4°100%95%NNE 2.9 KM/H
23:00Ceata13.3°13.9°100%95%NW 3.6 KM/H




tutorials